createdAt,value
2023-03-03T00:02:41.605Z,0
2023-03-03T00:08:12.015Z,0
2023-03-03T00:13:28.942Z,0
2023-03-03T00:19:25.609Z,0
2023-03-03T00:24:51.482Z,0
2023-03-03T00:30:33.449Z,0
2023-03-03T00:35:49.624Z,0
2023-03-03T00:41:27.309Z,0
2023-03-03T00:47:12.712Z,0
2023-03-03T00:52:36.031Z,0
2023-03-03T00:58:15.883Z,0
2023-03-03T01:03:38.701Z,0
2023-03-03T01:08:57.688Z,0
2023-03-03T01:14:43.199Z,0
2023-03-03T01:20:25.856Z,0
2023-03-03T01:25:45.683Z,0
2023-03-03T01:31:22.442Z,0
2023-03-03T01:36:57.882Z,0
2023-03-03T01:42:10.233Z,0
2023-03-03T01:48:05.437Z,0
2023-03-03T01:53:24.328Z,0
2023-03-03T01:58:58.660Z,0
2023-03-03T02:04:24.579Z,0
2023-03-03T02:10:00.513Z,0
2023-03-03T02:15:36.737Z,0
2023-03-03T02:21:06.429Z,0
2023-03-03T02:26:30.433Z,0
2023-03-03T02:32:25.803Z,0
2023-03-03T02:37:44.405Z,0
2023-03-03T02:43:21.785Z,0
2023-03-03T02:49:03.005Z,0
2023-03-03T02:54:15.205Z,0
2023-03-03T03:00:03.481Z,0
2023-03-03T03:05:18.279Z,0
2023-03-03T03:11:03.042Z,0
2023-03-03T03:16:49.680Z,0
2023-03-03T03:22:18.517Z,0
2023-03-03T03:27:31.389Z,0
2023-03-03T03:33:26.258Z,0
2023-03-03T03:38:51.801Z,0
2023-03-03T03:44:08.965Z,0
2023-03-03T03:50:07.462Z,0
2023-03-03T03:55:34.891Z,0
2023-03-03T04:01:02.237Z,0
2023-03-03T04:06:31.927Z,0
2023-03-03T04:11:54.673Z,0
2023-03-03T04:17:27.793Z,0
2023-03-03T04:22:55.166Z,0
2023-03-03T04:28:52.274Z,0
2023-03-03T04:34:18.658Z,0
2023-03-03T04:39:47.123Z,0
2023-03-03T04:45:18.209Z,0
2023-03-03T04:50:42.168Z,0
2023-03-03T04:56:21.407Z,0
2023-03-03T05:02:08.827Z,0
2023-03-03T05:07:34.757Z,0
2023-03-03T05:12:51.401Z,0
2023-03-03T05:18:48.959Z,0
2023-03-03T05:24:15.681Z,0
2023-03-03T05:29:44.378Z,0
2023-03-03T05:35:07.051Z,0
2023-03-03T05:40:55.505Z,0
2023-03-03T05:46:25.446Z,0
2023-03-03T05:51:52.421Z,0
2023-03-03T05:57:35.289Z,0
2023-03-03T06:03:03.791Z,0
2023-03-03T06:08:38.649Z,0
2023-03-03T06:14:02.249Z,0
2023-03-03T06:19:26.890Z,0
2023-03-03T06:25:08.842Z,0
2023-03-03T06:30:49.687Z,0
2023-03-03T06:36:15.845Z,0
2023-03-03T06:41:51.602Z,0
2023-03-03T06:52:36.566Z,0
2023-03-03T06:58:23.497Z,0
2023-03-03T07:04:00.488Z,0
2023-03-03T07:09:21.386Z,0
2023-03-03T07:15:07.267Z,0
2023-03-03T07:20:22.801Z,0
2023-03-03T07:26:06.508Z,0
2023-03-03T07:31:51.461Z,0
2023-03-03T07:37:19.531Z,0
2023-03-03T07:42:54.985Z,0
2023-03-03T07:48:05.589Z,0
2023-03-03T07:53:50.115Z,0
2023-03-03T07:59:31.974Z,0
2023-03-03T08:05:05.305Z,0
2023-03-03T08:10:35.477Z,0
2023-03-03T08:15:55.444Z,0
2023-03-03T08:21:34.613Z,0
2023-03-03T08:27:05.975Z,0
2023-03-03T08:32:38.889Z,0
2023-03-03T08:38:14.596Z,0
2023-03-03T08:43:47.998Z,0
2023-03-03T08:49:09.476Z,0
2023-03-03T08:54:45.063Z,0
2023-03-03T09:00:26.143Z,0
2023-03-03T09:05:51.844Z,0
2023-03-03T09:11:23.253Z,0
2023-03-03T09:17:13.622Z,0
2023-03-03T09:22:43.476Z,0
2023-03-03T09:28:21.356Z,0
2023-03-03T09:33:49.647Z,0
2023-03-03T09:39:06.720Z,0
2023-03-03T09:44:43.184Z,0
2023-03-03T09:50:20.915Z,0
2023-03-03T09:55:53.045Z,0
2023-03-03T10:01:29.098Z,0
2023-03-03T10:07:08.463Z,0
2023-03-03T10:12:35.110Z,0
2023-03-03T10:18:09.217Z,4.8
2023-03-03T10:23:41.736Z,7.2
2023-03-03T10:34:45.241Z,5.9
2023-03-03T10:40:37.238Z,5.9
2023-03-03T10:46:05.653Z,7.2
2023-03-03T10:51:33.790Z,5.9
2023-03-03T10:57:11.896Z,8.4
2023-03-03T11:02:42.390Z,5.9
2023-03-03T11:08:16.311Z,7.2
2023-03-03T11:13:42.932Z,9.6
2023-03-03T11:19:18.893Z,9.6
2023-03-03T11:24:53.080Z,8.4
2023-03-03T11:30:28.314Z,9.6
2023-03-03T11:36:13.526Z,8.4
2023-03-03T11:41:35.812Z,5.9
2023-03-03T11:47:31.875Z,8.4
2023-03-03T11:52:56.316Z,7.2
2023-03-03T11:58:43.344Z,5.9
2023-03-03T12:03:59.983Z,5.9
2023-03-03T12:09:41.240Z,4.8
2023-03-03T12:15:06.473Z,7.2
2023-03-03T12:20:49.215Z,5.9
2023-03-03T12:26:30.813Z,4.8
2023-03-03T12:32:12.993Z,7.2
2023-03-03T12:37:20.681Z,4.8
2023-03-03T12:43:01.490Z,7.2
2023-03-03T12:48:54.347Z,7.2
2023-03-03T12:54:15.776Z,5.9
2023-03-03T13:00:03.129Z,4.8
2023-03-03T13:05:29.684Z,7.2
2023-03-03T13:11:18.012Z,4.8
2023-03-03T13:16:58.171Z,7.2
2023-03-03T13:22:34.174Z,7.2
2023-03-03T13:27:55.653Z,3.6
2023-03-03T13:33:51.581Z,5.9
2023-03-03T13:39:22.033Z,4.8
2023-03-03T13:44:39.723Z,4.8
2023-03-03T13:50:25.441Z,8.4
2023-03-03T13:55:51.330Z,3.6
2023-03-03T14:01:50.562Z,7.2
2023-03-03T14:07:12.371Z,7.2
2023-03-03T14:12:41.171Z,3.6
2023-03-03T14:18:38.594Z,5.9
2023-03-03T14:24:05.220Z,10.7
2023-03-03T14:29:33.173Z,8.4
2023-03-03T14:35:06.637Z,8.4
2023-03-03T14:40:56.325Z,5.9
2023-03-03T14:46:24.171Z,5.9
2023-03-03T14:51:48.164Z,7.2
2023-03-03T14:57:49.538Z,9.6
2023-03-03T15:03:23.971Z,7.2
2023-03-03T15:08:32.512Z,7.2
2023-03-03T15:14:15.162Z,7.2
2023-03-03T15:19:51.902Z,5.9
2023-03-03T15:25:44.538Z,7.2
2023-03-03T15:30:58.936Z,5.9
2023-03-03T15:36:36.552Z,8.4
2023-03-03T15:42:03.741Z,5.9
2023-03-03T15:48:03.182Z,4.8
2023-03-03T15:53:35.962Z,4.8
2023-03-03T15:59:08.627Z,8.4
2023-03-03T16:04:42.726Z,5.9
2023-03-03T16:10:23.689Z,5.9
2023-03-03T16:15:51.872Z,4.8
2023-03-03T16:21:20.376Z,0
2023-03-03T16:27:02.858Z,4.8
2023-03-03T16:32:21.453Z,0
2023-03-03T16:38:07.030Z,0
2023-03-03T16:43:34.272Z,0
2023-03-03T16:49:02.046Z,0
2023-03-03T16:54:36.248Z,0
2023-03-03T17:00:08.295Z,0
2023-03-03T17:05:58.232Z,0
2023-03-03T17:11:24.489Z,0
2023-03-03T17:16:52.856Z,0
2023-03-03T17:22:31.072Z,0
2023-03-03T17:27:55.918Z,0
2023-03-03T17:33:29.660Z,0
2023-03-03T17:39:14.377Z,0
2023-03-03T17:44:25.204Z,0
2023-03-03T17:50:05.253Z,0
2023-03-03T17:55:41.887Z,0
2023-03-03T18:01:06.567Z,0
2023-03-03T18:06:35.981Z,0
2023-03-03T18:12:24.096Z,0
2023-03-03T18:17:42.112Z,0
2023-03-03T18:23:35.727Z,0
2023-03-03T18:28:57.498Z,0
2023-03-03T18:34:27.920Z,0
2023-03-03T18:40:10.128Z,0
2023-03-03T18:45:49.372Z,0
2023-03-03T18:51:08.101Z,0
2023-03-03T18:56:41.067Z,0
2023-03-03T19:02:34.689Z,0
2023-03-03T19:07:45.677Z,0
2023-03-03T19:13:37.317Z,0
2023-03-03T19:18:57.396Z,0
2023-03-03T19:24:38.792Z,4.8
2023-03-03T19:30:19.662Z,3.6
2023-03-03T19:35:40.169Z,0
2023-03-03T19:41:19.638Z,0
2023-03-03T19:46:48.471Z,0
2023-03-03T19:52:15.902Z,0
2023-03-03T19:58:07.242Z,0
2023-03-03T20:03:36.964Z,0
2023-03-03T20:09:08.871Z,0
2023-03-03T20:14:32.009Z,0
2023-03-03T20:20:17.814Z,0
2023-03-03T20:25:33.005Z,0
2023-03-03T20:31:12.392Z,0
2023-03-03T20:37:01.208Z,0
2023-03-03T20:42:25.924Z,0
2023-03-03T20:48:00.609Z,0
2023-03-03T20:53:41.185Z,0
2023-03-03T20:58:56.873Z,0
2023-03-03T21:04:44.501Z,0
2023-03-03T21:10:00.359Z,0
2023-03-03T21:15:47.684Z,0
2023-03-03T21:21:08.757Z,0
2023-03-03T21:26:57.773Z,0
2023-03-03T21:32:30.166Z,0
2023-03-03T21:37:38.120Z,0
2023-03-03T21:43:24.757Z,0
2023-03-03T21:49:03.685Z,0
2023-03-03T21:54:25.372Z,0
2023-03-03T21:59:57.505Z,0
2023-03-03T22:05:24.069Z,0
2023-03-03T22:10:58.787Z,0
2023-03-03T22:16:55.274Z,0
2023-03-03T22:22:13.190Z,0
2023-03-03T22:27:41.866Z,0
2023-03-03T22:33:17.563Z,0
2023-03-03T22:39:01.500Z,0
2023-03-03T22:44:22.735Z,0
2023-03-03T22:49:50.275Z,0
2023-03-03T22:55:37.073Z,0
2023-03-03T23:01:02.640Z,0
2023-03-03T23:06:44.269Z,0
2023-03-03T23:12:13.363Z,0
2023-03-03T23:17:39.928Z,0
2023-03-03T23:23:27.176Z,0
2023-03-03T23:28:51.422Z,0
2023-03-03T23:34:14.651Z,0
2023-03-03T23:40:13.835Z,3.6
2023-03-03T23:45:26.685Z,0
2023-03-03T23:51:09.293Z,0
2023-03-03T23:56:27.790Z,0
